地図

経路データ

SID SEASON NUMBER BASIN SUBBASIN NAME ISO_TIME NATURE LAT LON WMO_WIND WMO_PRES WMO_AGENCY TRACK_TYPE DIST2LAND LANDFALL IFLAG USA_AGENCY USA_ATCF_ID USA_LAT USA_LON USA_RECORD USA_STATUS USA_WIND USA_PRES USA_SSHS USA_R34_NE USA_R34_SE USA_R34_SW USA_R34_NW USA_R50_NE USA_R50_SE USA_R50_SW USA_R50_NW USA_R64_NE USA_R64_SE USA_R64_SW USA_R64_NW USA_POCI USA_ROCI USA_RMW USA_EYE TOKYO_LAT TOKYO_LON TOKYO_GRADE TOKYO_WIND TOKYO_PRES TOKYO_R50_DIR TOKYO_R50_LONG TOKYO_R50_SHORT TOKYO_R30_DIR TOKYO_R30_LONG TOKYO_R30_SHORT TOKYO_LAND CMA_LAT CMA_LON CMA_CAT CMA_WIND CMA_PRES HKO_LAT HKO_LON HKO_CAT HKO_WIND HKO_PRES NEWDELHI_LAT NEWDELHI_LON NEWDELHI_GRADE NEWDELHI_WIND NEWDELHI_PRES NEWDELHI_CI NEWDELHI_DP NEWDELHI_POCI REUNION_LAT REUNION_LON REUNION_TYPE REUNION_WIND REUNION_PRES REUNION_TNUM REUNION_CI REUNION_RMW REUNION_R34_NE REUNION_R34_SE REUNION_R34_SW REUNION_R34_NW REUNION_R50_NE REUNION_R50_SE REUNION_R50_SW REUNION_R50_NW REUNION_R64_NE REUNION_R64_SE REUNION_R64_SW REUNION_R64_NW BOM_LAT BOM_LON BOM_TYPE BOM_WIND BOM_PRES BOM_TNUM BOM_CI BOM_RMW BOM_R34_NE BOM_R34_SE BOM_R34_SW BOM_R34_NW BOM_R50_NE BOM_R50_SE BOM_R50_SW BOM_R50_NW BOM_R64_NE BOM_R64_SE BOM_R64_SW BOM_R64_NW BOM_ROCI BOM_POCI BOM_EYE BOM_POS_METHOD BOM_PRES_METHOD NADI_LAT NADI_LON NADI_CAT NADI_WIND NADI_PRES WELLINGTON_LAT WELLINGTON_LON WELLINGTON_WIND WELLINGTON_PRES DS824_LAT DS824_LON DS824_STAGE DS824_WIND DS824_PRES TD9636_LAT TD9636_LON TD9636_STAGE TD9636_WIND TD9636_PRES TD9635_LAT TD9635_LON TD9635_WIND TD9635_PRES TD9635_ROCI NEUMANN_LAT NEUMANN_LON NEUMANN_CLASS NEUMANN_WIND NEUMANN_PRES MLC_LAT MLC_LON MLC_CLASS MLC_WIND MLC_PRES USA_GUST BOM_GUST BOM_GUST_PER REUNION_GUST REUNION_GUST_PER USA_SEAHGT USA_SEARAD_NE USA_SEARAD_SE USA_SEARAD_SW USA_SEARAD_NW STORM_SPEED STORM_DIR
1933302N08137 1933 71 WP MM NOT_NAMED 1933-10-28 22:00:00 NR 8.00000 136.800 main 983 976 __________O___ -1 8.00000 136.800 7 26 274
1933302N08137 1933 71 WP MM NOT_NAMED 1933-10-29 00:00:00 NR 8.06148 135.925 main 986 883 __________P___ -1 8.06148 135.925 7 26 274
1933302N08137 1933 71 WP MM NOT_NAMED 1933-10-29 03:00:00 NR 8.15391 134.614 main 883 741 __________P___ -1 8.15391 134.614 7 26 274
1933302N08137 1933 71 WP MM NOT_NAMED 1933-10-29 06:00:00 NR 8.25161 133.313 main 741 600 __________P___ -1 8.25161 133.313 7 26 275
1933302N08137 1933 71 WP MM NOT_NAMED 1933-10-29 09:00:00 NR 8.36031 132.025 main 600 567 __________P___ -1 8.36031 132.025 7 26 275
1933302N08137 1933 71 WP MM NOT_NAMED 1933-10-29 10:00:00 NR 8.40000 131.600 main 556 471 __________O___ -1 8.40000 131.600 7 25 276
1933302N08137 1933 71 WP MM NOT_NAMED 1933-10-29 12:00:00 NR 8.48540 130.757 main 471 335 __________P___ -1 8.48540 130.757 7 25 276
1933302N08137 1933 71 WP MM NOT_NAMED 1933-10-29 15:00:00 NR 8.62675 129.523 main 335 216 __________P___ -1 8.62675 129.523 7 24 277
1933302N08137 1933 71 WP MM NOT_NAMED 1933-10-29 18:00:00 NR 8.78077 128.345 main 216 99 __________P___ -1 8.78077 128.345 7 23 278
1933302N08137 1933 71 WP MM NOT_NAMED 1933-10-29 21:00:00 NR 8.94407 127.245 main 99 80 __________P___ -1 8.94407 127.245 7 22 279
1933302N08137 1933 71 WP MM NOT_NAMED 1933-10-29 22:00:00 NR 9.00000 126.900 main 69 0 __________O___ -1 9.00000 126.900 3 20 279
1933302N08137 1933 71 WP MM NOT_NAMED 1933-10-30 00:00:00 NR 9.10437 126.248 main 0 0 __________P___ -1 9.10437 126.248 3 19 280
1933302N08137 1933 71 WP MM NOT_NAMED 1933-10-30 03:00:00 NR 9.26816 125.346 main 21 21 __________P___ -1 9.26816 125.346 3 18 281
1933302N08137 1933 71 WP MM NOT_NAMED 1933-10-30 06:00:00 NR 9.44348 124.501 main 31 0 __________P___ -1 9.44348 124.501 3 17 282
1933302N08137 1933 71 WP MM NOT_NAMED 1933-10-30 09:00:00 NR 9.63315 123.677 main 21 0 __________P___ -1 9.63315 123.677 3 17 283
1933302N08137 1933 71 WP MM NOT_NAMED 1933-10-30 10:00:00 NR 9.70000 123.400 main 0 0 __________O___ -1 9.70000 123.400 4 18 284
1933302N08137 1933 71 WP MM NOT_NAMED 1933-10-30 12:00:00 NR 9.84075 122.814 main 0 0 __________P___ -1 9.84075 122.814 4 18 284
1933302N08137 1933 71 WP MM NOT_NAMED 1933-10-30 15:00:00 NR 10.0649 121.935 main 33 33 __________P___ -1 10.0649 121.935 4 18 285
1933302N08137 1933 71 WP MM NOT_NAMED 1933-10-30 18:00:00 NR 10.2963 121.059 main 88 54 __________P___ -1 10.2963 121.059 4 18 285
1933302N08137 1933 71 WP MM NOT_NAMED 1933-10-30 21:00:00 NR 10.5256 120.188 main 54 24 __________P___ -1 10.5256 120.188 4 18 285
1933302N08137 1933 71 WP MM NOT_NAMED 1933-10-30 22:00:00 NR 10.6000 119.900 main 24 0 __________O___ -1 10.6000 119.900 4 17 284
1933302N08137 1933 71 WP MM NOT_NAMED 1933-10-31 00:00:00 NR 10.7305 119.332 main 0 0 __________P___ -1 10.7305 119.332 4 17 283
1933302N08137 1933 71 WP MM NOT_NAMED 1933-10-31 03:00:00 NR 10.9202 118.488 main 86 93 __________P___ -1 10.9202 118.488 4 17 283
1933302N08137 1933 71 WP MM NOT_NAMED 1933-10-31 06:00:00 NR 11.1139 117.643 main 172 172 __________P___ -1 11.1139 117.643 4 17 284
1933302N08137 1933 71 WP MM NOT_NAMED 1933-10-31 09:00:00 NR 11.3241 116.788 main 256 264 __________P___ -1 11.3241 116.788 4 17 284
1933302N08137 1933 71 WP MM NOT_NAMED 1933-10-31 10:00:00 NR 11.4000 116.500 main 284 284 __________O___ -1 11.4000 116.500 4 19 286
1933302N08137 1933 71 WP MM NOT_NAMED 1933-10-31 12:00:00 NR 11.5824 115.862 main 339 346 __________P___ -1 11.5824 115.862 4 20 287
1933302N08137 1933 71 WP MM NOT_NAMED 1933-10-31 15:00:00 NR 11.8754 114.892 main 438 446 __________P___ -1 11.8754 114.892 4 20 287
1933302N08137 1933 71 WP MM NOT_NAMED 1933-10-31 18:00:00 NR 12.1657 113.962 main 491 391 __________P___ -1 12.1657 113.962 4 18 288
1933302N08137 1933 71 WP MM NOT_NAMED 1933-10-31 21:00:00 NR 12.4251 113.139 main 391 369 __________P___ -1 12.4251 113.139 4 16 288
1933302N08137 1933 71 WP MM NOT_NAMED 1933-10-31 22:00:00 NR 12.5000 112.900 main 369 325 __________O___ -1 12.5000 112.900 4 13 287
1933302N08137 1933 71 WP MM NOT_NAMED 1933-11-01 00:00:00 NR 12.6162 112.513 main 325 282 __________P___ -1 12.6162 112.513 4 10 287
1933302N08137 1933 71 WP MM NOT_NAMED 1933-11-01 03:00:00 NR 12.7538 112.052 main 282 238 __________P___ -1 12.7538 112.052 4 9 287
1933302N08137 1933 71 WP MM NOT_NAMED 1933-11-01 06:00:00 NR 12.8640 111.678 main 238 195 __________P___ -1 12.8640 111.678 4 7 287
1933302N08137 1933 71 WP MM NOT_NAMED 1933-11-01 09:00:00 NR 12.9652 111.325 main 195 184 __________P___ -1 12.9652 111.325 4 7 286
1933302N08137 1933 71 WP MM NOT_NAMED 1933-11-01 10:00:00 NR 13.0000 111.200 main 184 153 __________O___ -1 13.0000 111.200 4 8 286
1933302N08137 1933 71 WP MM NOT_NAMED 1933-11-01 12:00:00 NR 13.0741 110.930 main 153 113 __________P___ -1 13.0741 110.930 4 9 285
1933302N08137 1933 71 WP MM NOT_NAMED 1933-11-01 15:00:00 NR 13.1947 110.478 main 113 70 __________P___ -1 13.1947 110.478 4 10 285
1933302N08137 1933 71 WP MM NOT_NAMED 1933-11-01 18:00:00 NR 13.3232 109.987 main 70 21 __________P___ -1 13.3232 109.987 4 10 285
1933302N08137 1933 71 WP MM NOT_NAMED 1933-11-01 21:00:00 NR 13.4556 109.473 main 21 0 __________P___ -1 13.4556 109.473 4 10 285
1933302N08137 1933 71 WP MM NOT_NAMED 1933-11-01 22:00:00 NR 13.5000 109.300 main 0 __________O___ -1 13.5000 109.300 7 10 285

デジタル台風データ・検索

IBTrACS Databaseについて

本データベースは、米国NOAAが公開する1842年以降の世界の熱帯低気圧のベストトラックデータアーカイブInternational Best Track Archive for Climate Stewardship (IBTrACS)を、ウェブで閲覧しやすい形式に変換したものです。

最終更新日:2021-12-06